createdAt,value
2022-08-18T03:18:39.942Z,98409.94
2022-08-18T03:21:52.439Z,98410.72
2022-08-18T03:25:04.924Z,98402.78
2022-08-18T03:28:16.173Z,98397.56
2022-08-18T03:31:31.233Z,98406.19
2022-08-18T03:34:42.761Z,98408.75
2022-08-18T03:37:52.596Z,98400.66
2022-08-18T03:41:02.881Z,98393.50
2022-08-18T03:44:16.522Z,98390.72
2022-08-18T03:47:29.606Z,98388.94
2022-08-18T03:50:57.225Z,98388.94
2022-08-18T03:54:07.221Z,98399.16
2022-08-18T03:57:16.793Z,98402.47
2022-08-18T04:00:27.332Z,98400.59
2022-08-18T04:03:44.155Z,98388.34
2022-08-18T04:06:58.976Z,98392.66
2022-08-18T04:10:17.019Z,98387.41
2022-08-18T04:13:29.236Z,98385.56
2022-08-18T04:16:39.165Z,98393.31
2022-08-18T04:19:48.662Z,98394.03
2022-08-18T04:23:09.703Z,98390.63
2022-08-18T04:26:21.961Z,98397.59
2022-08-18T04:29:32.012Z,98399.41
2022-08-18T04:32:45.241Z,98401.28
2022-08-18T04:35:55.671Z,98407.50
2022-08-18T04:39:19.558Z,98409.16
2022-08-18T04:42:33.769Z,98416.03
2022-08-18T04:45:44.784Z,98416.84
2022-08-18T04:48:58.845Z,98408.06
2022-08-18T04:52:40.737Z,98418.53
2022-08-18T04:55:54.172Z,98429.88
2022-08-18T04:59:08.716Z,98428.13
2022-08-18T07:39:52.507Z,98478.91
2022-08-18T07:43:06.235Z,98482.16
2022-08-18T07:46:22.227Z,98493.34
2022-08-18T07:49:36.323Z,98496.81
2022-08-18T07:52:54.607Z,98500.38
2022-08-18T07:56:13.132Z,98505.66
2022-08-18T07:59:30.035Z,98500.47
2022-08-18T08:02:54.694Z,98492.66
2022-08-18T08:06:13.835Z,98492.75
2022-08-18T08:09:31.713Z,98498.78
2022-08-18T08:12:51.452Z,98497.22
2022-08-18T08:16:06.302Z,98497.34
2022-08-18T08:20:00.192Z,98497.34
2022-08-18T08:23:23.079Z,98506.09
2022-08-18T08:27:03.098Z,98505.25
2022-08-18T08:30:19.495Z,98495.78
2022-08-18T08:33:45.049Z,98503.75
2022-08-18T08:37:01.377Z,98506.53
2022-08-18T08:40:19.520Z,98505.03
2022-08-18T08:43:33.281Z,98504.31
2022-08-18T08:46:53.720Z,98500.25
2022-08-18T08:50:15.128Z,98506.50
2022-08-18T08:53:28.979Z,98505.56
2022-08-18T08:56:47.955Z,98509.88
2022-08-18T09:00:03.588Z,98517.56
2022-08-18T09:03:31.510Z,98520.97
2022-08-18T09:06:50.959Z,98524.44
2022-08-18T09:10:25.017Z,98525.47
2022-08-18T09:13:57.184Z,98521.28
2022-08-18T09:17:34.280Z,98519.63
2022-08-18T09:20:57.303Z,98521.59
2022-08-18T09:24:19.737Z,98535.84
2022-08-18T09:28:08.877Z,98525.84
2022-08-18T09:31:20.395Z,98528.00
2022-08-18T09:34:45.328Z,98526.59
2022-08-18T09:38:15.741Z,98536.34
2022-08-18T09:41:49.069Z,98534.06
2022-08-18T09:48:42.882Z,98527.59
2022-08-18T09:51:55.708Z,98529.56
2022-08-18T09:55:40.686Z,98528.03
2022-08-18T09:59:09.689Z,98516.28
2022-08-18T10:02:51.470Z,98501.13
2022-08-18T10:06:15.659Z,98498.41
2022-08-18T10:09:37.995Z,98497.50
2022-08-18T10:13:08.577Z,98492.50
2022-08-18T10:16:28.182Z,98497.75
2022-08-18T10:19:54.220Z,98496.28
2022-08-18T10:27:03.072Z,98487.19
2022-08-18T10:30:57.678Z,98495.91
2022-08-18T10:34:39.305Z,98497.66
2022-08-18T10:37:51.270Z,98500.94
2022-08-18T10:41:15.255Z,98502.66
2022-08-18T10:44:30.886Z,98480.13
2022-08-18T10:47:43.349Z,98474.84
2022-08-18T10:54:51.783Z,98472.25
2022-08-18T10:58:23.959Z,98466.16
2022-08-18T11:01:53.434Z,98462.53
2022-08-18T11:05:09.823Z,98474.88
2022-08-18T11:08:25.080Z,98486.38
2022-08-18T11:11:45.602Z,98483.88
2022-08-18T11:15:23.455Z,98460.53
2022-08-18T11:18:43.325Z,98425.31
2022-08-18T11:21:55.983Z,98399.69
2022-08-18T11:25:23.543Z,98399.25
2022-08-18T11:28:44.889Z,98421.47
2022-08-18T11:32:02.165Z,98417.94
2022-08-18T11:35:18.743Z,98408.97
2022-08-18T11:43:21.458Z,98419.19
2022-08-18T11:46:38.806Z,98423.53
2022-08-18T11:49:56.696Z,98427.84
2022-08-18T11:53:18.956Z,98412.97
2022-08-18T12:01:39.040Z,98397.41
2022-08-18T12:04:54.334Z,98395.69
2022-08-18T12:08:09.095Z,98391.34
2022-08-18T12:11:29.305Z,98396.63
2022-08-18T12:15:00.576Z,98386.16
2022-08-18T12:18:26.573Z,98396.81
2022-08-18T12:21:40.932Z,98380.19
2022-08-18T12:24:52.613Z,98381.97
2022-08-18T12:28:03.078Z,98387.13
2022-08-18T12:31:21.309Z,98386.16
2022-08-18T12:34:40.703Z,98390.41
2022-08-18T12:38:11.191Z,98384.19
2022-08-18T12:41:23.958Z,98387.63
2022-08-18T12:44:34.704Z,98385.75
2022-08-18T12:47:44.700Z,98382.97
2022-08-18T12:50:59.629Z,98381.06
2022-08-18T12:54:10.877Z,98381.06
2022-08-18T12:57:52.596Z,98388.94
2022-08-18T13:00:56.732Z,98386.34
2022-08-18T13:04:13.183Z,98377.59
2022-08-18T13:07:24.991Z,98373.19
2022-08-18T13:10:46.675Z,98367.03
2022-08-18T13:13:57.408Z,98355.69
2022-08-18T13:17:13.122Z,98355.81
2022-08-18T13:20:37.855Z,98359.44
2022-08-18T13:23:53.474Z,98359.50
2022-08-18T13:27:18.439Z,98355.25
2022-08-18T13:30:35.699Z,98346.69
2022-08-18T13:33:57.235Z,98342.47
2022-08-18T13:37:09.295Z,98337.66
2022-08-18T13:40:22.482Z,98335.16
2022-08-18T13:43:37.994Z,98336.91
2022-08-18T13:46:52.048Z,98338.66
2022-08-18T13:50:02.147Z,98335.16
2022-08-18T13:53:19.369Z,98328.13
2022-08-18T13:56:32.021Z,98321.09
2022-08-18T13:59:46.548Z,98330.75
2022-08-18T14:02:58.639Z,98322.63
2022-08-18T14:06:09.049Z,98303.94
2022-08-18T14:09:28.089Z,98315.56
2022-08-18T14:12:49.729Z,98316.47
2022-08-18T14:16:01.236Z,98312.66
2022-08-18T14:19:23.830Z,98300.16
2022-08-18T14:22:45.276Z,98302.66
2022-08-18T14:26:06.246Z,98300.09
2022-08-18T14:29:46.428Z,98298.31
2022-08-18T14:32:50.715Z,98296.59
2022-08-18T14:36:06.400Z,98295.66
2022-08-18T14:39:19.520Z,98293.09
2022-08-18T14:42:41.022Z,98288.06
2022-08-18T14:45:53.794Z,98303.25
2022-08-18T14:49:08.515Z,98297.13
2022-08-18T14:52:18.644Z,98290.06
2022-08-18T14:55:30.525Z,98297.09
2022-08-18T14:58:41.111Z,98304.22
2022-08-18T15:01:53.640Z,98304.28
2022-08-18T15:05:19.791Z,98296.34
2022-08-18T15:08:36.459Z,98303.38
2022-08-18T15:11:46.601Z,98298.94
2022-08-18T15:15:02.112Z,98296.03
2022-08-18T15:18:13.905Z,98292.06
2022-08-18T15:21:38.718Z,98298.06
2022-08-18T15:25:02.983Z,98293.69
2022-08-18T15:28:19.072Z,98294.69
2022-08-18T15:35:02.223Z,98301.75
2022-08-18T15:38:24.603Z,98312.47
2022-08-18T15:41:44.171Z,98308.97
2022-08-18T15:44:56.770Z,98312.53
2022-08-18T15:48:09.592Z,98323.41
2022-08-18T15:51:24.616Z,98320.97
2022-08-18T15:54:35.999Z,98322.81
2022-08-18T15:57:46.680Z,98325.47
2022-08-18T16:00:58.946Z,98316.69
2022-08-18T16:07:25.233Z,98313.19
2022-08-18T16:10:52.219Z,98305.25
2022-08-18T16:14:02.690Z,98300.00
2022-08-18T16:17:23.763Z,98309.66
2022-08-18T16:20:34.297Z,98302.63
2022-08-18T16:23:48.122Z,98307.00
2022-08-18T16:26:58.497Z,98300.88
2022-08-18T16:30:11.179Z,98308.72
2022-08-18T16:33:21.888Z,98306.94
2022-08-18T16:36:32.423Z,98310.44
2022-08-18T16:39:44.391Z,98302.47
2022-08-18T16:42:56.227Z,98309.47
2022-08-18T16:46:11.396Z,98315.56
2022-08-18T16:49:21.951Z,98317.22
2022-08-18T16:52:35.058Z,98325.88
2022-08-18T16:55:46.698Z,98322.25
2022-08-18T16:59:07.956Z,98322.97
2022-08-18T17:02:31.793Z,98324.50
2022-08-18T17:05:42.157Z,98309.53
2022-08-18T17:08:52.600Z,98319.22
2022-08-18T17:12:05.079Z,98313.88
2022-08-18T17:15:16.187Z,98318.22
2022-08-18T17:18:27.222Z,98319.06
2022-08-18T17:21:38.628Z,98316.34
2022-08-18T17:24:49.700Z,98321.53
2022-08-18T17:28:02.938Z,98333.63
2022-08-18T17:31:17.703Z,98318.44
2022-08-18T17:34:35.039Z,98321.88
2022-08-18T17:37:53.658Z,98322.78
2022-08-18T17:41:06.741Z,98314.88
2022-08-18T17:44:18.524Z,98312.97
2022-08-18T17:47:34.297Z,98318.06
2022-08-18T17:51:00.763Z,98320.69
2022-08-18T17:54:19.350Z,98330.16
2022-08-18T17:57:33.062Z,98334.47
2022-08-18T18:00:49.046Z,98333.53
2022-08-18T18:04:00.543Z,98328.19
2022-08-18T18:07:23.333Z,98332.56
2022-08-18T18:10:51.145Z,98335.19
2022-08-18T18:14:24.291Z,98336.00
2022-08-18T18:17:39.931Z,98329.81
2022-08-18T18:21:00.186Z,98333.25
2022-08-18T18:24:16.335Z,98333.16
2022-08-18T18:27:31.272Z,98336.56
2022-08-18T18:30:41.683Z,98337.34
2022-08-18T18:34:01.741Z,98341.50
2022-08-18T18:37:26.485Z,98336.22
2022-08-18T18:40:40.100Z,98346.63
2022-08-18T18:43:52.721Z,98353.47
2022-08-18T18:47:10.596Z,98344.53
2022-08-18T18:50:30.102Z,98343.47
2022-08-18T18:53:52.682Z,98340.75
2022-08-18T18:57:10.886Z,98339.69
2022-08-18T19:00:30.209Z,98350.91
2022-08-18T19:04:07.972Z,98348.72
2022-08-18T19:07:26.742Z,98343.22
2022-08-18T19:10:41.367Z,98345.56
2022-08-18T19:13:56.943Z,98346.28
2022-08-18T19:17:13.586Z,98356.50
2022-08-18T19:20:29.404Z,98356.31
2022-08-18T19:23:47.808Z,98358.69
2022-08-18T19:27:04.941Z,98362.94
2022-08-18T19:30:18.379Z,98362.66
2022-08-18T19:33:33.817Z,98363.28
2022-08-18T19:36:52.607Z,98365.72
2022-08-18T19:40:12.908Z,98370.75
2022-08-18T19:43:30.106Z,98373.28
2022-08-18T19:46:45.804Z,98366.25
2022-08-18T19:50:05.849Z,98372.38
2022-08-18T19:53:33.553Z,98368.75
2022-08-18T19:56:59.025Z,98372.13
2022-08-18T20:00:22.811Z,98374.75
